DAAJ/DJG METAR and TAF weather

Enter ICAO airport designator
Station Type Date Time Source
DAAJ METAR 2021/03/03 02:00 UTC NOAA

DAAJ 030200Z 10004KT CAVOK 09/M07 Q1022


Station Type Date Time Source
DAAJ Decoded METAR 2021/03/03 02:00 UTC NOAA

Djanet, Algeria (DAAJ) 24-33N 009-28E 1054M
Mar 02, 2021 - 09:00 PM EST / 2021.03.03 0200 UTC
Wind: from the E (100 degrees) at 5 MPH (4 KT):0
Visibility: greater than 7 mile(s):0
Temperature: 48 F (9 C)
Dew Point: 19 F (-7 C)
Relative Humidity: 31%
Pressure (altimeter): 30.18 in. Hg (1022 hPa)
ob: DAAJ 030200Z 10004KT CAVOK 09/M07 Q1022
cycle: 2

Station Type Date Time Source
DAAJ TAF 2021/03/02 18:33 UTC NOAA

TAF DAAJ 021700Z 0218/0318 18005KT CAVOK

Example: see airport list